METAR Data
IDs: Format: Raw Decoded Include TAF

Data at: 0129 UTC 24 Oct 2019

METAR for:KLWD (Lamoni Muni, IA, US)
Text:KLWD 240053Z AUTO 34010KT 10SM BKN013 08/06 A3003 RMK AO2 PRESRR SLP174 T00830056
Temperature: 8.3°C ( 47°F)
Dewpoint: 5.6°C ( 42°F) [RH = 83%]
Pressure (altimeter):30.03 inches Hg (1017.0 mb) [Sea level pressure: 1017.4 mb]
Winds:from the NNW (340 degrees) at 12 MPH (10 knots; 5.1 m/s)
Visibility:10 or more sm (16+ km)
Ceiling:1300 feet AGL
Clouds: broken clouds at 1300 feet AGL
QC Flag:automated observation with no human augmentation